sensor_id;sensor_type;location;lat;lon;timestamp;temperature;humidity
18454;DHT22;9356;52.202;20.950;2023-04-24T00:00:37;14.70;58.70
18454;DHT22;9356;52.202;20.950;2023-04-24T00:01:44;14.70;58.60
18454;DHT22;9356;52.202;20.950;2023-04-24T00:02:51;15.30;59.00
18454;DHT22;9356;52.202;20.950;2023-04-24T00:03:59;14.70;58.90
18454;DHT22;9356;52.202;20.950;2023-04-24T00:05:03;14.70;58.90
18454;DHT22;9356;52.202;20.950;2023-04-24T00:06:07;14.70;58.90
18454;DHT22;9356;52.202;20.950;2023-04-24T00:07:11;14.70;59.00
18454;DHT22;9356;52.202;20.950;2023-04-24T00:08:17;14.70;58.60
18454;DHT22;9356;52.202;20.950;2023-04-24T00:09:20;14.60;58.70
18454;DHT22;9356;52.202;20.950;2023-04-24T00:10:24;14.70;59.30
18454;DHT22;9356;52.202;20.950;2023-04-24T00:11:28;14.70;59.30
18454;DHT22;9356;52.202;20.950;2023-04-24T00:12:32;14.70;59.10
18454;DHT22;9356;52.202;20.950;2023-04-24T00:13:35;14.70;59.10
18454;DHT22;9356;52.202;20.950;2023-04-24T00:14:39;14.70;59.20
18454;DHT22;9356;52.202;20.950;2023-04-24T00:15:44;14.60;59.20
18454;DHT22;9356;52.202;20.950;2023-04-24T00:16:50;14.70;59.20
18454;DHT22;9356;52.202;20.950;2023-04-24T00:17:53;14.60;59.20
18454;DHT22;9356;52.202;20.950;2023-04-24T00:18:59;14.60;59.10
18454;DHT22;9356;52.202;20.950;2023-04-24T00:20:04;14.60;59.10
18454;DHT22;9356;52.202;20.950;2023-04-24T00:21:09;14.60;59.10
18454;DHT22;9356;52.202;20.950;2023-04-24T00:22:12;14.60;59.20
18454;DHT22;9356;52.202;20.950;2023-04-24T00:23:19;14.60;59.20
18454;DHT22;9356;52.202;20.950;2023-04-24T00:24:23;14.60;59.30
18454;DHT22;9356;52.202;20.950;2023-04-24T00:25:26;14.60;59.40
18454;DHT22;9356;52.202;20.950;2023-04-24T00:26:30;14.60;59.40
18454;DHT22;9356;52.202;20.950;2023-04-24T00:27:33;14.50;59.30
18454;DHT22;9356;52.202;20.950;2023-04-24T00:28:39;14.50;59.40
18454;DHT22;9356;52.202;20.950;2023-04-24T00:29:43;14.50;59.40
18454;DHT22;9356;52.202;20.950;2023-04-24T00:30:48;14.40;59.60
18454;DHT22;9356;52.202;20.950;2023-04-24T00:31:53;11.70;58.20
18454;DHT22;9356;52.202;20.950;2023-04-24T00:32:57;14.40;59.70
18454;DHT22;9356;52.202;20.950;2023-04-24T00:34:00;14.30;59.20
18454;DHT22;9356;52.202;20.950;2023-04-24T00:35:06;14.30;59.80
18454;DHT22;9356;52.202;20.950;2023-04-24T00:36:09;14.30;59.90
18454;DHT22;9356;52.202;20.950;2023-04-24T00:37:15;14.30;59.60
18454;DHT22;9356;52.202;20.950;2023-04-24T00:38:19;14.30;59.20
18454;DHT22;9356;52.202;20.950;2023-04-24T00:39:24;14.30;59.60
18454;DHT22;9356;52.202;20.950;2023-04-24T00:40:28;14.30;59.50
18454;DHT22;9356;52.202;20.950;2023-04-24T00:41:32;13.20;59.10
18454;DHT22;9356;52.202;20.950;2023-04-24T00:42:35;14.30;59.70
18454;DHT22;9356;52.202;20.950;2023-04-24T00:43:39;14.30;59.30
18454;DHT22;9356;52.202;20.950;2023-04-24T00:44:42;14.30;59.80
18454;DHT22;9356;52.202;20.950;2023-04-24T00:45:47;14.30;59.90
18454;DHT22;9356;52.202;20.950;2023-04-24T00:46:50;16.80;62.00
18454;DHT22;9356;52.202;20.950;2023-04-24T00:48:00;14.30;59.80
18454;DHT22;9356;52.202;20.950;2023-04-24T00:49:04;14.30;59.80
18454;DHT22;9356;52.202;20.950;2023-04-24T00:50:10;14.30;59.70
18454;DHT22;9356;52.202;20.950;2023-04-24T00:51:15;14.40;59.70
18454;DHT22;9356;52.202;20.950;2023-04-24T00:52:21;13.90;59.50
18454;DHT22;9356;52.202;20.950;2023-04-24T00:53:27;14.40;59.70
18454;DHT22;9356;52.202;20.950;2023-04-24T00:54:31;14.40;59.70
18454;DHT22;9356;52.202;20.950;2023-04-24T00:55:33;14.40;60.00
18454;DHT22;9356;52.202;20.950;2023-04-24T00:56:40;14.40;60.00
18454;DHT22;9356;52.202;20.950;2023-04-24T00:57:45;14.30;60.10
18454;DHT22;9356;52.202;20.950;2023-04-24T00:58:49;14.40;60.00
18454;DHT22;9356;52.202;20.950;2023-04-24T00:59:53;14.40;60.20
18454;DHT22;9356;52.202;20.950;2023-04-24T01:00:59;14.40;60.20
18454;DHT22;9356;52.202;20.950;2023-04-24T01:02:04;14.30;60.00
18454;DHT22;9356;52.202;20.950;2023-04-24T01:03:10;14.40;60.20
18454;DHT22;9356;52.202;20.950;2023-04-24T01:04:14;14.30;60.30
18454;DHT22;9356;52.202;20.950;2023-04-24T01:05:24;14.20;60.30
18454;DHT22;9356;52.202;20.950;2023-04-24T01:06:29;14.20;60.40
18454;DHT22;9356;52.202;20.950;2023-04-24T01:07:34;14.30;60.40
18454;DHT22;9356;52.202;20.950;2023-04-24T01:08:38;14.20;60.20
18454;DHT22;9356;52.202;20.950;2023-04-24T01:09:48;11.10;59.20
18454;DHT22;9356;52.202;20.950;2023-04-24T01:10:53;14.20;60.90
18454;DHT22;9356;52.202;20.950;2023-04-24T01:11:58;14.20;61.10
18454;DHT22;9356;52.202;20.950;2023-04-24T01:13:03;14.20;61.10
18454;DHT22;9356;52.202;20.950;2023-04-24T01:14:10;14.30;61.00
18454;DHT22;9356;52.202;20.950;2023-04-24T01:15:13;14.20;61.20
18454;DHT22;9356;52.202;20.950;2023-04-24T01:16:18;15.10;61.80
18454;DHT22;9356;52.202;20.950;2023-04-24T01:17:24;14.20;60.60
18454;DHT22;9356;52.202;20.950;2023-04-24T01:19:34;14.20;60.30
18454;DHT22;9356;52.202;20.950;2023-04-24T01:20:41;11.10;59.00
18454;DHT22;9356;52.202;20.950;2023-04-24T01:21:47;16.70;61.80
18454;DHT22;9356;52.202;20.950;2023-04-24T01:22:56;14.20;60.70
18454;DHT22;9356;52.202;20.950;2023-04-24T01:23:59;14.20;60.70
18454;DHT22;9356;52.202;20.950;2023-04-24T01:25:04;10.60;58.80
18454;DHT22;9356;52.202;20.950;2023-04-24T01:26:08;14.20;60.70
18454;DHT22;9356;52.202;20.950;2023-04-24T01:27:12;14.20;59.90
18454;DHT22;9356;52.202;20.950;2023-04-24T01:28:16;14.20;60.40
18454;DHT22;9356;52.202;20.950;2023-04-24T01:29:21;14.20;60.40
18454;DHT22;9356;52.202;20.950;2023-04-24T01:30:24;14.20;60.50
18454;DHT22;9356;52.202;20.950;2023-04-24T01:31:29;14.20;60.50
18454;DHT22;9356;52.202;20.950;2023-04-24T01:32:32;14.20;60.40
18454;DHT22;9356;52.202;20.950;2023-04-24T01:33:37;14.20;60.50
18454;DHT22;9356;52.202;20.950;2023-04-24T01:34:40;14.20;60.60
18454;DHT22;9356;52.202;20.950;2023-04-24T01:35:48;14.10;60.30
18454;DHT22;9356;52.202;20.950;2023-04-24T01:36:53;14.20;61.10
18454;DHT22;9356;52.202;20.950;2023-04-24T01:38:04;14.20;60.80
18454;DHT22;9356;52.202;20.950;2023-04-24T01:39:11;14.10;61.00
18454;DHT22;9356;52.202;20.950;2023-04-24T01:40:15;14.20;60.90
18454;DHT22;9356;52.202;20.950;2023-04-24T01:41:19;14.10;60.80
18454;DHT22;9356;52.202;20.950;2023-04-24T01:42:23;14.10;60.70
18454;DHT22;9356;52.202;20.950;2023-04-24T01:43:26;14.10;60.70
18454;DHT22;9356;52.202;20.950;2023-04-24T01:44:33;14.10;60.90
18454;DHT22;9356;52.202;20.950;2023-04-24T01:45:38;13.90;60.80
18454;DHT22;9356;52.202;20.950;2023-04-24T01:46:42;14.00;60.70
18454;DHT22;9356;52.202;20.950;2023-04-24T01:47:45;16.60;62.50
18454;DHT22;9356;52.202;20.950;2023-04-24T01:48:52;14.00;61.00
18454;DHT22;9356;52.202;20.950;2023-04-24T01:49:55;12.30;59.90
18454;DHT22;9356;52.202;20.950;2023-04-24T01:50:59;14.00;61.10
18454;DHT22;9356;52.202;20.950;2023-04-24T01:52:03;14.00;61.10
18454;DHT22;9356;52.202;20.950;2023-04-24T01:53:09;14.00;60.60
18454;DHT22;9356;52.202;20.950;2023-04-24T01:54:13;16.50;62.70
18454;DHT22;9356;52.202;20.950;2023-04-24T01:55:19;12.90;60.40
18454;DHT22;9356;52.202;20.950;2023-04-24T01:56:22;13.90;60.70
18454;DHT22;9356;52.202;20.950;2023-04-24T01:57:27;13.90;60.70
18454;DHT22;9356;52.202;20.950;2023-04-24T01:58:32;13.90;61.50
18454;DHT22;9356;52.202;20.950;2023-04-24T01:59:37;10.90;59.40
18454;DHT22;9356;52.202;20.950;2023-04-24T02:00:40;13.90;61.40
18454;DHT22;9356;52.202;20.950;2023-04-24T02:01:43;13.80;61.40
18454;DHT22;9356;52.202;20.950;2023-04-24T02:02:47;13.80;61.30
18454;DHT22;9356;52.202;20.950;2023-04-24T02:03:51;13.80;61.50
18454;DHT22;9356;52.202;20.950;2023-04-24T02:04:54;13.70;61.40
18454;DHT22;9356;52.202;20.950;2023-04-24T02:05:58;11.30;59.90
18454;DHT22;9356;52.202;20.950;2023-04-24T02:07:01;13.80;61.60
18454;DHT22;9356;52.202;20.950;2023-04-24T02:08:06;13.70;61.70
18454;DHT22;9356;52.202;20.950;2023-04-24T02:09:13;13.70;61.70
18454;DHT22;9356;52.202;20.950;2023-04-24T02:10:17;13.60;61.60
18454;DHT22;9356;52.202;20.950;2023-04-24T02:11:21;13.60;62.00
18454;DHT22;9356;52.202;20.950;2023-04-24T02:12:26;13.60;61.40
18454;DHT22;9356;52.202;20.950;2023-04-24T02:13:29;13.50;61.40
18454;DHT22;9356;52.202;20.950;2023-04-24T02:14:33;11.60;60.80
18454;DHT22;9356;52.202;20.950;2023-04-24T02:16:42;13.60;61.80
18454;DHT22;9356;52.202;20.950;2023-04-24T02:17:46;13.70;62.40
18454;DHT22;9356;52.202;20.950;2023-04-24T02:18:50;13.50;62.40
18454;DHT22;9356;52.202;20.950;2023-04-24T02:19:53;13.60;62.60
18454;DHT22;9356;52.202;20.950;2023-04-24T02:20:57;13.50;62.00
18454;DHT22;9356;52.202;20.950;2023-04-24T02:22:00;13.50;62.30
18454;DHT22;9356;52.202;20.950;2023-04-24T02:23:05;13.50;62.60
18454;DHT22;9356;52.202;20.950;2023-04-24T02:24:08;13.50;62.60
18454;DHT22;9356;52.202;20.950;2023-04-24T02:25:18;15.30;63.10
18454;DHT22;9356;52.202;20.950;2023-04-24T02:26:23;13.40;62.60
18454;DHT22;9356;52.202;20.950;2023-04-24T02:27:28;13.50;62.70
18454;DHT22;9356;52.202;20.950;2023-04-24T02:28:31;12.30;62.00
18454;DHT22;9356;52.202;20.950;2023-04-24T02:29:36;13.50;62.70
18454;DHT22;9356;52.202;20.950;2023-04-24T02:32:30;13.50;62.50
18454;DHT22;9356;52.202;20.950;2023-04-24T02:33:33;13.50;62.00
18454;DHT22;9356;52.202;20.950;2023-04-24T02:34:37;13.50;62.80
18454;DHT22;9356;52.202;20.950;2023-04-24T02:35:40;13.50;62.80
18454;DHT22;9356;52.202;20.950;2023-04-24T02:36:44;13.60;62.80
18454;DHT22;9356;52.202;20.950;2023-04-24T02:37:49;13.60;62.70
18454;DHT22;9356;52.202;20.950;2023-04-24T02:38:53;13.60;62.40
18454;DHT22;9356;52.202;20.950;2023-04-24T02:39:56;13.60;62.50
18454;DHT22;9356;52.202;20.950;2023-04-24T02:41:01;15.30;63.30
18454;DHT22;9356;52.202;20.950;2023-04-24T02:42:08;13.60;61.70
18454;DHT22;9356;52.202;20.950;2023-04-24T02:43:12;13.60;61.50
18454;DHT22;9356;52.202;20.950;2023-04-24T02:44:15;13.60;61.60
18454;DHT22;9356;52.202;20.950;2023-04-24T02:45:19;13.70;62.50
18454;DHT22;9356;52.202;20.950;2023-04-24T02:46:24;13.70;62.30
18454;DHT22;9356;52.202;20.950;2023-04-24T02:47:28;15.40;63.50
18454;DHT22;9356;52.202;20.950;2023-04-24T02:48:31;13.70;62.80
18454;DHT22;9356;52.202;20.950;2023-04-24T02:49:35;13.40;61.70
18454;DHT22;9356;52.202;20.950;2023-04-24T02:50:37;13.70;62.00
18454;DHT22;9356;52.202;20.950;2023-04-24T02:51:41;13.70;62.10
18454;DHT22;9356;52.202;20.950;2023-04-24T02:52:44;13.60;61.30
18454;DHT22;9356;52.202;20.950;2023-04-24T02:53:48;13.70;62.00
18454;DHT22;9356;52.202;20.950;2023-04-24T02:54:50;13.60;61.90
18454;DHT22;9356;52.202;20.950;2023-04-24T02:55:59;12.60;61.20
18454;DHT22;9356;52.202;20.950;2023-04-24T02:57:03;13.60;61.30
18454;DHT22;9356;52.202;20.950;2023-04-24T02:58:07;13.60;61.80
18454;DHT22;9356;52.202;20.950;2023-04-24T02:59:13;13.60;61.80
18454;DHT22;9356;52.202;20.950;2023-04-24T03:00:17;13.60;62.00
18454;DHT22;9356;52.202;20.950;2023-04-24T03:01:20;13.60;61.70
18454;DHT22;9356;52.202;20.950;2023-04-24T03:02:24;13.60;61.80
18454;DHT22;9356;52.202;20.950;2023-04-24T03:03:27;13.60;61.90
18454;DHT22;9356;52.202;20.950;2023-04-24T03:04:31;13.70;61.90
18454;DHT22;9356;52.202;20.950;2023-04-24T03:05:35;13.60;61.70
18454;DHT22;9356;52.202;20.950;2023-04-24T03:06:38;13.50;61.70
18454;DHT22;9356;52.202;20.950;2023-04-24T03:07:41;13.50;62.00
18454;DHT22;9356;52.202;20.950;2023-04-24T03:08:45;13.50;61.90
18454;DHT22;9356;52.202;20.950;2023-04-24T03:09:48;13.50;62.10
18454;DHT22;9356;52.202;20.950;2023-04-24T03:10:52;13.50;62.00
18454;DHT22;9356;52.202;20.950;2023-04-24T03:11:57;13.60;62.20
18454;DHT22;9356;52.202;20.950;2023-04-24T03:13:03;13.50;62.00
18454;DHT22;9356;52.202;20.950;2023-04-24T03:14:09;13.50;61.20
18454;DHT22;9356;52.202;20.950;2023-04-24T03:15:12;13.60;61.90
18454;DHT22;9356;52.202;20.950;2023-04-24T03:16:15;13.50;61.40
18454;DHT22;9356;52.202;20.950;2023-04-24T03:17:19;13.50;61.90
18454;DHT22;9356;52.202;20.950;2023-04-24T03:18:22;14.30;62.20
18454;DHT22;9356;52.202;20.950;2023-04-24T03:19:27;13.50;61.30
18454;DHT22;9356;52.202;20.950;2023-04-24T03:20:40;13.50;62.10
18454;DHT22;9356;52.202;20.950;2023-04-24T03:21:44;13.40;62.10
18454;DHT22;9356;52.202;20.950;2023-04-24T03:22:47;13.40;62.20
18454;DHT22;9356;52.202;20.950;2023-04-24T03:23:51;13.40;62.20
18454;DHT22;9356;52.202;20.950;2023-04-24T03:24:54;14.40;62.70
18454;DHT22;9356;52.202;20.950;2023-04-24T03:26:01;13.40;61.70
18454;DHT22;9356;52.202;20.950;2023-04-24T03:27:06;13.40;62.30
18454;DHT22;9356;52.202;20.950;2023-04-24T03:28:30;9.90;59.70
18454;DHT22;9356;52.202;20.950;2023-04-24T03:29:37;13.30;62.50
18454;DHT22;9356;52.202;20.950;2023-04-24T03:30:41;12.40;61.50
18454;DHT22;9356;52.202;20.950;2023-04-24T03:31:48;13.30;62.60
18454;DHT22;9356;52.202;20.950;2023-04-24T03:32:53;13.30;62.00
18454;DHT22;9356;52.202;20.950;2023-04-24T03:34:00;13.30;62.20
18454;DHT22;9356;52.202;20.950;2023-04-24T03:35:06;13.30;62.20
18454;DHT22;9356;52.202;20.950;2023-04-24T03:36:10;13.20;62.10
18454;DHT22;9356;52.202;20.950;2023-04-24T03:37:16;13.30;63.00
18454;DHT22;9356;52.202;20.950;2023-04-24T03:38:25;13.10;62.00
18454;DHT22;9356;52.202;20.950;2023-04-24T03:39:35;13.30;63.00
18454;DHT22;9356;52.202;20.950;2023-04-24T03:40:40;13.20;62.20
18454;DHT22;9356;52.202;20.950;2023-04-24T03:42:10;13.30;62.90
18454;DHT22;9356;52.202;20.950;2023-04-24T03:43:24;13.30;63.10
18454;DHT22;9356;52.202;20.950;2023-04-24T03:44:34;13.30;63.00
18454;DHT22;9356;52.202;20.950;2023-04-24T03:45:37;13.30;62.70
18454;DHT22;9356;52.202;20.950;2023-04-24T03:46:41;13.30;62.60
18454;DHT22;9356;52.202;20.950;2023-04-24T03:47:45;13.30;62.90
18454;DHT22;9356;52.202;20.950;2023-04-24T03:48:51;13.20;62.60
18454;DHT22;9356;52.202;20.950;2023-04-24T03:49:59;13.20;63.20
18454;DHT22;9356;52.202;20.950;2023-04-24T03:51:03;13.20;63.50
18454;DHT22;9356;52.202;20.950;2023-04-24T03:52:09;13.20;63.50
18454;DHT22;9356;52.202;20.950;2023-04-24T03:53:13;13.20;63.40
18454;DHT22;9356;52.202;20.950;2023-04-24T03:54:17;13.20;63.60
18454;DHT22;9356;52.202;20.950;2023-04-24T03:55:21;13.20;62.80
18454;DHT22;9356;52.202;20.950;2023-04-24T03:56:25;13.30;63.10
18454;DHT22;9356;52.202;20.950;2023-04-24T03:57:29;13.40;63.10
18454;DHT22;9356;52.202;20.950;2023-04-24T03:58:41;13.30;62.40
18454;DHT22;9356;52.202;20.950;2023-04-24T03:59:47;13.40;63.20
18454;DHT22;9356;52.202;20.950;2023-04-24T04:00:53;13.40;63.00
18454;DHT22;9356;52.202;20.950;2023-04-24T04:02:17;13.50;62.90
18454;DHT22;9356;52.202;20.950;2023-04-24T04:03:21;13.40;63.20
18454;DHT22;9356;52.202;20.950;2023-04-24T04:04:26;13.40;63.60
18454;DHT22;9356;52.202;20.950;2023-04-24T04:05:30;13.50;62.70
18454;DHT22;9356;52.202;20.950;2023-04-24T04:06:34;13.60;63.20
18454;DHT22;9356;52.202;20.950;2023-04-24T04:07:39;13.70;62.80
18454;DHT22;9356;52.202;20.950;2023-04-24T04:08:43;13.90;62.10
18454;DHT22;9356;52.202;20.950;2023-04-24T04:09:46;14.10;62.00
18454;DHT22;9356;52.202;20.950;2023-04-24T04:10:50;14.50;61.30
18454;DHT22;9356;52.202;20.950;2023-04-24T04:11:53;14.70;60.60
18454;DHT22;9356;52.202;20.950;2023-04-24T04:12:57;12.60;58.50
18454;DHT22;9356;52.202;20.950;2023-04-24T04:14:01;15.10;59.50
18454;DHT22;9356;52.202;20.950;2023-04-24T04:15:09;15.30;59.30
18454;DHT22;9356;52.202;20.950;2023-04-24T04:16:16;15.50;58.90
18454;DHT22;9356;52.202;20.950;2023-04-24T04:17:22;12.20;56.70
18454;DHT22;9356;52.202;20.950;2023-04-24T04:18:26;15.80;58.30
18454;DHT22;9356;52.202;20.950;2023-04-24T04:19:30;15.90;58.00
18454;DHT22;9356;52.202;20.950;2023-04-24T04:20:33;16.20;57.70
18454;DHT22;9356;52.202;20.950;2023-04-24T04:21:37;16.10;57.50
18454;DHT22;9356;52.202;20.950;2023-04-24T04:22:59;15.50;56.80
18454;DHT22;9356;52.202;20.950;2023-04-24T04:24:15;16.20;57.00
18454;DHT22;9356;52.202;20.950;2023-04-24T04:25:20;16.20;56.90
18454;DHT22;9356;52.202;20.950;2023-04-24T04:26:26;16.10;56.50
18454;DHT22;9356;52.202;20.950;2023-04-24T04:27:36;16.10;56.80
18454;DHT22;9356;52.202;20.950;2023-04-24T04:28:45;16.00;57.20
18454;DHT22;9356;52.202;20.950;2023-04-24T04:29:48;16.00;57.10
18454;DHT22;9356;52.202;20.950;2023-04-24T04:30:53;15.60;56.60
18454;DHT22;9356;52.202;20.950;2023-04-24T04:31:59;15.90;57.10
18454;DHT22;9356;52.202;20.950;2023-04-24T04:33:04;15.80;57.30
18454;DHT22;9356;52.202;20.950;2023-04-24T04:34:09;15.80;57.20
18454;DHT22;9356;52.202;20.950;2023-04-24T04:35:15;15.80;57.30
18454;DHT22;9356;52.202;20.950;2023-04-24T04:36:18;15.80;57.40
18454;DHT22;9356;52.202;20.950;2023-04-24T04:37:26;15.80;57.20
18454;DHT22;9356;52.202;20.950;2023-04-24T04:38:51;15.70;57.60
18454;DHT22;9356;52.202;20.950;2023-04-24T04:40:14;15.70;57.20
18454;DHT22;9356;52.202;20.950;2023-04-24T04:41:25;15.80;57.60
18454;DHT22;9356;52.202;20.950;2023-04-24T04:42:29;15.90;57.40
18454;DHT22;9356;52.202;20.950;2023-04-24T04:43:31;15.90;57.30
18454;DHT22;9356;52.202;20.950;2023-04-24T04:44:36;16.00;57.40
18454;DHT22;9356;52.202;20.950;2023-04-24T04:45:45;15.90;57.40
18454;DHT22;9356;52.202;20.950;2023-04-24T04:47:10;18.30;58.40
18454;DHT22;9356;52.202;20.950;2023-04-24T04:48:14;16.00;57.10
18454;DHT22;9356;52.202;20.950;2023-04-24T04:49:21;16.20;56.70
18454;DHT22;9356;52.202;20.950;2023-04-24T04:50:26;16.20;57.10
18454;DHT22;9356;52.202;20.950;2023-04-24T04:51:36;19.90;59.00
18454;DHT22;9356;52.202;20.950;2023-04-24T04:52:41;16.40;56.60
18454;DHT22;9356;52.202;20.950;2023-04-24T04:54:00;16.50;56.10
18454;DHT22;9356;52.202;20.950;2023-04-24T04:55:04;16.70;56.40
18454;DHT22;9356;52.202;20.950;2023-04-24T04:56:28;16.80;56.00
18454;DHT22;9356;52.202;20.950;2023-04-24T04:57:35;17.00;55.90
18454;DHT22;9356;52.202;20.950;2023-04-24T04:58:40;17.00;55.70
18454;DHT22;9356;52.202;20.950;2023-04-24T04:59:45;17.00;55.40
18454;DHT22;9356;52.202;20.950;2023-04-24T05:00:57;17.20;55.60
18454;DHT22;9356;52.202;20.950;2023-04-24T05:02:06;17.20;55.60
18454;DHT22;9356;52.202;20.950;2023-04-24T05:03:10;17.30;55.20
18454;DHT22;9356;52.202;20.950;2023-04-24T05:04:21;17.40;55.10
18454;DHT22;9356;52.202;20.950;2023-04-24T05:05:25;19.60;56.10
18454;DHT22;9356;52.202;20.950;2023-04-24T05:06:28;17.30;54.90
18454;DHT22;9356;52.202;20.950;2023-04-24T05:07:34;17.40;54.60
18454;DHT22;9356;52.202;20.950;2023-04-24T05:08:39;17.40;55.00
18454;DHT22;9356;52.202;20.950;2023-04-24T05:09:47;17.40;55.50
18454;DHT22;9356;52.202;20.950;2023-04-24T05:10:50;17.50;54.90
18454;DHT22;9356;52.202;20.950;2023-04-24T05:11:53;17.60;54.50
18454;DHT22;9356;52.202;20.950;2023-04-24T05:12:58;18.60;55.20
18454;DHT22;9356;52.202;20.950;2023-04-24T05:14:02;17.80;54.70
18454;DHT22;9356;52.202;20.950;2023-04-24T05:15:11;18.00;54.50
18454;DHT22;9356;52.202;20.950;2023-04-24T05:16:17;18.10;54.20
18454;DHT22;9356;52.202;20.950;2023-04-24T05:17:20;18.10;54.80
18454;DHT22;9356;52.202;20.950;2023-04-24T05:18:29;18.10;54.60
18454;DHT22;9356;52.202;20.950;2023-04-24T05:19:34;18.20;54.80
18454;DHT22;9356;52.202;20.950;2023-04-24T05:20:41;18.30;53.80
18454;DHT22;9356;52.202;20.950;2023-04-24T05:22:52;18.50;53.60
18454;DHT22;9356;52.202;20.950;2023-04-24T05:23:56;16.10;52.40
18454;DHT22;9356;52.202;20.950;2023-04-24T05:25:28;18.70;53.20
18454;DHT22;9356;52.202;20.950;2023-04-24T05:26:40;18.90;53.10
18454;DHT22;9356;52.202;20.950;2023-04-24T05:27:44;19.10;52.60
18454;DHT22;9356;52.202;20.950;2023-04-24T05:28:50;19.20;52.80
18454;DHT22;9356;52.202;20.950;2023-04-24T05:29:54;19.40;52.60
18454;DHT22;9356;52.202;20.950;2023-04-24T05:31:00;20.40;52.60
18454;DHT22;9356;52.202;20.950;2023-04-24T05:32:04;18.00;51.80
18454;DHT22;9356;52.202;20.950;2023-04-24T05:33:09;19.80;52.20
18454;DHT22;9356;52.202;20.950;2023-04-24T05:34:15;19.00;51.50
18454;DHT22;9356;52.202;20.950;2023-04-24T05:35:20;20.10;51.20
18454;DHT22;9356;52.202;20.950;2023-04-24T05:36:24;20.20;50.90
18454;DHT22;9356;52.202;20.950;2023-04-24T05:37:27;20.20;51.00
18454;DHT22;9356;52.202;20.950;2023-04-24T05:38:31;20.30;50.70
18454;DHT22;9356;52.202;20.950;2023-04-24T05:39:37;20.40;50.60
18454;DHT22;9356;52.202;20.950;2023-04-24T05:40:44;20.50;50.40
18454;DHT22;9356;52.202;20.950;2023-04-24T05:41:49;20.30;50.50
18454;DHT22;9356;52.202;20.950;2023-04-24T05:42:53;20.30;50.80
18454;DHT22;9356;52.202;20.950;2023-04-24T05:43:59;20.30;50.90
18454;DHT22;9356;52.202;20.950;2023-04-24T05:45:04;20.40;51.40
18454;DHT22;9356;52.202;20.950;2023-04-24T05:46:07;21.60;52.00
18454;DHT22;9356;52.202;20.950;2023-04-24T05:47:11;20.60;50.90
18454;DHT22;9356;52.202;20.950;2023-04-24T05:48:14;20.70;50.80
18454;DHT22;9356;52.202;20.950;2023-04-24T05:49:19;20.80;50.30
18454;DHT22;9356;52.202;20.950;2023-04-24T05:50:26;21.00;50.00
18454;DHT22;9356;52.202;20.950;2023-04-24T05:51:30;21.10;49.90
18454;DHT22;9356;52.202;20.950;2023-04-24T05:52:35;21.20;49.90
18454;DHT22;9356;52.202;20.950;2023-04-24T05:53:43;21.30;50.30
18454;DHT22;9356;52.202;20.950;2023-04-24T05:54:48;21.50;49.70
18454;DHT22;9356;52.202;20.950;2023-04-24T05:55:56;21.50;49.30
18454;DHT22;9356;52.202;20.950;2023-04-24T05:56:59;21.60;49.60
18454;DHT22;9356;52.202;20.950;2023-04-24T05:58:19;21.60;49.00
18454;DHT22;9356;52.202;20.950;2023-04-24T05:59:23;21.50;49.10
18454;DHT22;9356;52.202;20.950;2023-04-24T06:00:27;23.50;50.20
18454;DHT22;9356;52.202;20.950;2023-04-24T06:01:37;23.80;50.30
18454;DHT22;9356;52.202;20.950;2023-04-24T06:02:48;21.30;49.10
18454;DHT22;9356;52.202;20.950;2023-04-24T06:03:52;21.00;49.10
18454;DHT22;9356;52.202;20.950;2023-04-24T06:04:58;20.80;49.30
18454;DHT22;9356;52.202;20.950;2023-04-24T06:06:05;20.60;49.90
18454;DHT22;9356;52.202;20.950;2023-04-24T06:07:11;20.50;50.30
18454;DHT22;9356;52.202;20.950;2023-04-24T06:08:14;20.40;50.40
18454;DHT22;9356;52.202;20.950;2023-04-24T06:09:20;20.30;50.70
18454;DHT22;9356;52.202;20.950;2023-04-24T06:10:22;20.20;51.10
18454;DHT22;9356;52.202;20.950;2023-04-24T06:11:27;20.10;51.00
18454;DHT22;9356;52.202;20.950;2023-04-24T06:12:29;20.10;51.30
18454;DHT22;9356;52.202;20.950;2023-04-24T06:13:39;20.10;51.70
18454;DHT22;9356;52.202;20.950;2023-04-24T06:15:01;20.10;52.20
18454;DHT22;9356;52.202;20.950;2023-04-24T06:16:23;20.20;52.00
18454;DHT22;9356;52.202;20.950;2023-04-24T06:17:33;20.20;52.50
18454;DHT22;9356;52.202;20.950;2023-04-24T06:18:36;20.50;53.00
18454;DHT22;9356;52.202;20.950;2023-04-24T06:19:40;20.60;53.40
18454;DHT22;9356;52.202;20.950;2023-04-24T06:20:45;20.90;52.10
18454;DHT22;9356;52.202;20.950;2023-04-24T06:21:48;19.20;50.20
18454;DHT22;9356;52.202;20.950;2023-04-24T06:22:52;21.30;50.80
18454;DHT22;9356;52.202;20.950;2023-04-24T06:23:56;21.40;50.20
18454;DHT22;9356;52.202;20.950;2023-04-24T06:25:01;21.50;49.70
18454;DHT22;9356;52.202;20.950;2023-04-24T06:26:07;21.60;49.40
18454;DHT22;9356;52.202;20.950;2023-04-24T06:27:10;21.50;49.30
18454;DHT22;9356;52.202;20.950;2023-04-24T06:28:17;18.40;47.70
18454;DHT22;9356;52.202;20.950;2023-04-24T06:29:22;21.40;49.10
18454;DHT22;9356;52.202;20.950;2023-04-24T06:30:27;21.30;49.30
18454;DHT22;9356;52.202;20.950;2023-04-24T06:31:34;21.20;49.60
18454;DHT22;9356;52.202;20.950;2023-04-24T06:32:43;21.20;49.60
18454;DHT22;9356;52.202;20.950;2023-04-24T06:33:47;21.20;50.10
18454;DHT22;9356;52.202;20.950;2023-04-24T06:40:13;21.70;49.20
18454;DHT22;9356;52.202;20.950;2023-04-24T06:41:16;21.70;48.90
18454;DHT22;9356;52.202;20.950;2023-04-24T06:42:22;21.90;48.20
18454;DHT22;9356;52.202;20.950;2023-04-24T06:43:26;21.90;48.20
18454;DHT22;9356;52.202;20.950;2023-04-24T06:44:33;22.00;47.70
18454;DHT22;9356;52.202;20.950;2023-04-24T06:45:39;22.00;48.10
18454;DHT22;9356;52.202;20.950;2023-04-24T06:46:42;22.10;47.90
18454;DHT22;9356;52.202;20.950;2023-04-24T06:47:47;20.50;47.70
18454;DHT22;9356;52.202;20.950;2023-04-24T06:48:50;22.30;47.60
18454;DHT22;9356;52.202;20.950;2023-04-24T06:49:54;22.50;47.50
18454;DHT22;9356;52.202;20.950;2023-04-24T06:51:01;22.60;47.70
18454;DHT22;9356;52.202;20.950;2023-04-24T06:52:06;22.70;48.20
18454;DHT22;9356;52.202;20.950;2023-04-24T06:54:15;23.00;47.30
18454;DHT22;9356;52.202;20.950;2023-04-24T06:55:19;23.00;48.20
18454;DHT22;9356;52.202;20.950;2023-04-24T06:56:22;22.40;46.40
18454;DHT22;9356;52.202;20.950;2023-04-24T06:57:26;22.20;46.80
18454;DHT22;9356;52.202;20.950;2023-04-24T06:58:30;24.30;47.50
18454;DHT22;9356;52.202;20.950;2023-04-24T06:59:34;23.10;47.60
18454;DHT22;9356;52.202;20.950;2023-04-24T07:00:38;23.20;47.40
18454;DHT22;9356;52.202;20.950;2023-04-24T07:01:42;23.20;47.40
18454;DHT22;9356;52.202;20.950;2023-04-24T07:02:44;23.10;47.60
18454;DHT22;9356;52.202;20.950;2023-04-24T07:03:52;23.10;47.10
18454;DHT22;9356;52.202;20.950;2023-04-24T07:04:56;23.00;47.50
18454;DHT22;9356;52.202;20.950;2023-04-24T07:06:02;23.00;47.60